createdAt,value
2018-12-22T00:01:22.721Z,4.31
2018-12-22T00:04:26.789Z,4.40
2018-12-22T00:07:30.725Z,4.39
2018-12-22T00:10:34.824Z,4.46
2018-12-22T00:13:38.756Z,4.45
2018-12-22T00:16:42.896Z,4.42
2018-12-22T00:19:46.842Z,4.36
2018-12-22T00:22:50.896Z,4.31
2018-12-22T00:25:54.828Z,4.33
2018-12-22T00:28:58.870Z,4.37
2018-12-22T00:32:02.793Z,4.35
2018-12-22T00:35:06.928Z,4.29
2018-12-22T00:38:10.877Z,4.34
2018-12-22T00:41:14.959Z,4.34
2018-12-22T00:44:18.892Z,4.33
2018-12-22T00:47:23.088Z,4.33
2018-12-22T00:50:27.140Z,4.34
2018-12-22T00:53:31.220Z,4.38
2018-12-22T00:56:35.157Z,4.38
2018-12-22T00:59:39.245Z,4.36
2018-12-22T01:02:43.245Z,4.43
2018-12-22T01:05:47.385Z,4.42
2018-12-22T01:08:51.355Z,4.41
2018-12-22T01:11:55.408Z,4.43
2018-12-22T01:14:59.354Z,4.41
2018-12-22T01:18:03.417Z,4.37
2018-12-22T01:21:07.356Z,4.26
2018-12-22T01:24:11.451Z,4.23
2018-12-22T01:27:15.412Z,4.17
2018-12-22T01:30:19.481Z,4.13
2018-12-22T01:33:23.420Z,4.14
2018-12-22T01:36:27.485Z,4.20
2018-12-22T01:39:31.471Z,4.21
2018-12-22T01:42:35.640Z,4.21
2018-12-22T01:45:39.592Z,4.26
2018-12-22T01:48:43.668Z,4.33
2018-12-22T01:51:47.604Z,4.53
2018-12-22T01:54:51.792Z,5.06
2018-12-22T01:57:55.744Z,5.56
2018-12-22T02:00:59.824Z,5.25
2018-12-22T02:04:03.761Z,5.01
2018-12-22T02:07:07.814Z,4.88
2018-12-22T02:10:11.744Z,4.85
2018-12-22T02:13:15.888Z,4.82
2018-12-22T02:16:19.811Z,4.86
2018-12-22T02:19:24.009Z,5.17
2018-12-22T02:22:27.934Z,5.04
2018-12-22T02:25:32.029Z,4.88
2018-12-22T02:28:35.963Z,4.81
2018-12-22T02:31:40.158Z,4.85
2018-12-22T02:34:44.109Z,4.99
2018-12-22T02:37:48.155Z,5.03
2018-12-22T02:40:52.094Z,5.09
2018-12-22T02:43:56.108Z,5.12
2018-12-22T02:47:00.061Z,5.16
2018-12-22T02:50:04.650Z,5.17
2018-12-22T02:53:08.576Z,5.15
2018-12-22T02:56:12.988Z,5.17
2018-12-22T02:59:16.918Z,5.17
2018-12-22T03:02:21.010Z,5.16
2018-12-22T03:05:25.027Z,5.19
2018-12-22T03:08:29.245Z,5.20
2018-12-22T03:11:33.191Z,5.33
2018-12-22T03:14:37.276Z,5.45
2018-12-22T03:17:41.316Z,5.50
2018-12-22T03:20:45.397Z,5.50
2018-12-22T03:23:49.340Z,5.52
2018-12-22T03:26:53.532Z,5.49
2018-12-22T03:29:57.490Z,5.43
2018-12-22T03:33:01.554Z,5.38
2018-12-22T03:36:05.488Z,5.35
2018-12-22T03:39:09.565Z,5.33
2018-12-22T03:42:13.614Z,5.35
2018-12-22T03:45:17.817Z,5.37
2018-12-22T03:48:21.765Z,5.43
2018-12-22T03:51:25.836Z,5.44
2018-12-22T03:54:29.788Z,5.45
2018-12-22T03:57:33.860Z,5.47
2018-12-22T04:00:37.800Z,5.47
2018-12-22T04:03:41.889Z,5.46
2018-12-22T04:06:45.824Z,5.45
2018-12-22T04:09:49.913Z,5.35
2018-12-22T04:12:53.840Z,5.34
2018-12-22T04:15:57.941Z,5.36
2018-12-22T04:19:01.873Z,5.39
2018-12-22T04:22:05.969Z,5.43
2018-12-22T04:25:09.904Z,5.51
2018-12-22T04:28:13.994Z,5.52
2018-12-22T04:31:17.976Z,5.55
2018-12-22T04:34:22.022Z,5.51
2018-12-22T04:37:25.948Z,5.52
2018-12-22T04:40:30.986Z,5.56
2018-12-22T04:43:34.960Z,5.63
2018-12-22T04:46:39.103Z,5.62
2018-12-22T04:49:43.053Z,5.64
2018-12-22T04:52:47.332Z,5.61
2018-12-22T04:55:51.280Z,5.59
2018-12-22T04:58:55.358Z,5.57
2018-12-22T05:01:59.289Z,5.52
2018-12-22T05:05:03.320Z,5.46
2018-12-22T05:08:07.254Z,5.41
2018-12-22T05:11:11.310Z,5.38
2018-12-22T05:14:15.255Z,5.44
2018-12-22T05:17:19.333Z,5.47
2018-12-22T05:20:23.285Z,5.53
2018-12-22T05:23:27.327Z,5.54
2018-12-22T05:26:31.256Z,5.55
2018-12-22T05:29:35.392Z,5.54
2018-12-22T05:32:39.340Z,5.58
2018-12-22T05:35:43.352Z,5.57
2018-12-22T05:38:47.316Z,5.55
2018-12-22T05:41:51.439Z,5.50
2018-12-22T05:44:55.377Z,5.52
2018-12-22T05:47:59.669Z,5.54
2018-12-22T05:51:03.603Z,5.55
2018-12-22T05:54:07.759Z,5.60
2018-12-22T05:57:11.700Z,5.63
2018-12-22T06:00:15.830Z,5.66
2018-12-22T06:03:19.764Z,5.74
2018-12-22T06:06:23.853Z,5.70
2018-12-22T06:09:27.794Z,5.69
2018-12-22T06:12:31.813Z,5.68
2018-12-22T06:15:35.759Z,5.62
2018-12-22T06:18:39.804Z,5.59
2018-12-22T06:21:43.776Z,5.53
2018-12-22T06:24:47.938Z,5.58
2018-12-22T06:27:51.917Z,5.64
2018-12-22T06:30:55.973Z,5.65
2018-12-22T06:33:59.904Z,5.71
2018-12-22T06:37:03.987Z,5.78
2018-12-22T06:40:08.326Z,5.76
2018-12-22T06:43:12.427Z,5.77
2018-12-22T06:46:16.360Z,5.80
2018-12-22T06:49:20.464Z,5.83
2018-12-22T06:52:24.420Z,5.87
2018-12-22T06:55:28.480Z,5.93
2018-12-22T06:58:32.424Z,6.03
2018-12-22T07:01:36.505Z,6.09
2018-12-22T07:04:40.444Z,6.13
2018-12-22T07:07:44.629Z,6.16
2018-12-22T07:10:48.569Z,6.15
2018-12-22T07:13:52.613Z,6.16
2018-12-22T07:16:56.637Z,6.13
2018-12-22T07:20:00.785Z,6.12
2018-12-22T07:23:04.991Z,6.11
2018-12-22T07:26:09.017Z,6.13
2018-12-22T07:29:13.000Z,6.16
2018-12-22T07:32:17.257Z,6.15
2018-12-22T07:35:21.196Z,6.17
2018-12-22T07:38:25.276Z,6.21
2018-12-22T07:41:29.236Z,6.25
2018-12-22T07:44:33.280Z,6.26
2018-12-22T07:47:37.254Z,6.25
2018-12-22T07:50:41.268Z,6.28
2018-12-22T07:53:45.210Z,6.35
2018-12-22T07:56:49.357Z,6.35
2018-12-22T07:59:53.328Z,6.31
2018-12-22T08:02:57.384Z,6.28
2018-12-22T08:06:01.338Z,6.24
2018-12-22T08:09:06.642Z,6.11
2018-12-22T08:12:10.609Z,5.93
2018-12-22T08:15:14.765Z,5.78
2018-12-22T08:18:18.709Z,5.69
2018-12-22T08:21:22.793Z,5.60
2018-12-22T08:24:26.733Z,5.54
2018-12-22T08:27:30.820Z,5.52
2018-12-22T08:30:43.337Z,5.53
2018-12-22T08:33:40.818Z,5.52
2018-12-22T08:36:44.789Z,5.55
2018-12-22T08:39:48.920Z,5.53
2018-12-22T08:42:52.879Z,5.52
2018-12-22T08:45:56.952Z,5.45
2018-12-22T08:49:00.889Z,5.44
2018-12-22T08:52:04.981Z,5.42
2018-12-22T08:55:08.956Z,5.44
2018-12-22T08:58:13.109Z,5.50
2018-12-22T09:01:17.044Z,5.57
2018-12-22T09:04:21.129Z,5.59
2018-12-22T09:07:25.072Z,5.62
2018-12-22T09:10:29.156Z,5.70
2018-12-22T09:13:33.105Z,5.75
2018-12-22T09:16:37.121Z,5.79
2018-12-22T09:19:41.075Z,5.87
2018-12-22T09:22:45.110Z,5.91
2018-12-22T09:25:49.053Z,6.01
2018-12-22T09:28:53.227Z,6.04
2018-12-22T09:31:57.164Z,6.09
2018-12-22T09:35:01.291Z,6.07
2018-12-22T09:38:05.265Z,6.05
2018-12-22T09:41:10.109Z,6.01
2018-12-22T09:44:14.056Z,6.02
2018-12-22T09:47:18.360Z,6.04
2018-12-22T09:50:22.305Z,6.08
2018-12-22T09:53:26.473Z,6.11
2018-12-22T09:56:30.409Z,6.10
2018-12-22T09:59:34.577Z,6.10
2018-12-22T10:02:38.528Z,6.12
2018-12-22T10:05:43.345Z,6.16
2018-12-22T10:08:47.280Z,6.15
2018-12-22T10:11:51.369Z,6.17
2018-12-22T10:14:55.312Z,6.15
2018-12-22T10:17:59.392Z,6.15
2018-12-22T10:21:03.377Z,6.14
2018-12-22T10:24:07.432Z,6.15
2018-12-22T10:27:11.369Z,6.14
2018-12-22T10:30:15.455Z,6.19
2018-12-22T10:33:19.554Z,6.25
2018-12-22T10:36:23.676Z,6.35
2018-12-22T10:39:27.625Z,6.34
2018-12-22T10:42:31.666Z,6.40
2018-12-22T10:45:35.606Z,6.45
2018-12-22T10:48:39.737Z,6.48
2018-12-22T10:51:43.680Z,6.50
2018-12-22T10:54:47.697Z,6.54
2018-12-22T10:57:51.662Z,6.47
2018-12-22T11:00:55.812Z,6.46
2018-12-22T11:03:59.756Z,6.49
2018-12-22T11:07:03.828Z,6.48
2018-12-22T11:10:13.366Z,6.49
2018-12-22T11:13:17.496Z,6.47
2018-12-22T11:16:21.440Z,6.44
2018-12-22T11:19:25.495Z,6.45
2018-12-22T11:22:29.477Z,6.42
2018-12-22T11:25:33.536Z,6.43
2018-12-22T11:28:37.515Z,6.42
2018-12-22T11:31:41.856Z,6.43
2018-12-22T11:34:45.819Z,6.44
2018-12-22T11:37:49.976Z,6.39
2018-12-22T11:40:53.917Z,6.32
2018-12-22T11:43:57.956Z,6.21
2018-12-22T11:47:07.741Z,6.12
2018-12-22T11:50:18.432Z,6.02
2018-12-22T11:53:22.377Z,5.97
2018-12-22T11:56:26.456Z,6.02
2018-12-22T11:59:30.404Z,6.04
2018-12-22T12:02:34.646Z,6.17
2018-12-22T12:05:38.620Z,6.34
2018-12-22T12:08:42.720Z,6.56
2018-12-22T12:11:46.657Z,6.83
2018-12-22T12:14:50.764Z,6.94
2018-12-22T12:18:27.157Z,7.10
2018-12-22T12:21:31.233Z,7.22
2018-12-22T12:24:35.167Z,7.35
2018-12-22T12:27:39.256Z,7.46
2018-12-22T12:30:43.192Z,7.50
2018-12-22T12:33:47.221Z,7.62
2018-12-22T12:36:51.228Z,7.69
2018-12-22T12:39:55.377Z,7.72
2018-12-22T12:42:59.467Z,7.72
2018-12-22T12:46:03.557Z,7.74
2018-12-22T12:49:07.889Z,7.68
2018-12-22T12:52:12.093Z,7.55
2018-12-22T12:55:16.110Z,7.28
2018-12-22T12:58:20.208Z,7.19
2018-12-22T13:01:24.430Z,7.11
2018-12-22T13:04:28.778Z,7.09
2018-12-22T13:07:32.785Z,6.83
2018-12-22T13:10:37.146Z,6.67
2018-12-22T13:13:45.157Z,6.58
2018-12-22T13:16:49.200Z,6.52
2018-12-22T13:19:53.149Z,6.48
2018-12-22T13:22:57.209Z,6.44
2018-12-22T13:26:01.182Z,6.39
2018-12-22T13:29:05.274Z,6.35
2018-12-22T13:32:09.804Z,6.33
2018-12-22T13:35:14.555Z,6.31
2018-12-22T13:38:18.501Z,6.34
2018-12-22T13:41:22.568Z,6.38
2018-12-22T13:44:26.797Z,6.42
2018-12-22T13:47:30.938Z,6.59
2018-12-22T13:50:35.038Z,6.80
2018-12-22T13:53:39.201Z,6.69
2018-12-22T13:56:43.161Z,6.65
2018-12-22T13:59:47.237Z,6.83
2018-12-22T14:02:51.217Z,6.94
2018-12-22T14:05:55.477Z,7.23
2018-12-22T14:08:59.429Z,7.34
2018-12-22T14:12:03.497Z,7.41
2018-12-22T14:15:14.588Z,7.42
2018-12-22T14:18:26.254Z,7.47
2018-12-22T14:21:30.194Z,7.48
2018-12-22T14:24:34.405Z,7.45
2018-12-22T14:27:38.341Z,7.55
2018-12-22T14:30:42.424Z,7.64
2018-12-22T14:33:46.361Z,7.74
2018-12-22T14:36:50.477Z,7.79
2018-12-22T14:39:54.440Z,7.80
2018-12-22T14:42:58.480Z,7.85
2018-12-22T14:46:02.441Z,7.89
2018-12-22T14:49:06.505Z,7.95
2018-12-22T14:52:10.446Z,7.95
2018-12-22T14:55:14.535Z,8.01
2018-12-22T14:58:18.537Z,7.96
2018-12-22T15:01:22.665Z,7.92
2018-12-22T15:04:26.658Z,7.91
2018-12-22T15:07:30.824Z,7.90
2018-12-22T15:10:34.770Z,7.83
2018-12-22T15:13:38.820Z,7.82
2018-12-22T15:16:42.768Z,7.90
2018-12-22T15:19:46.797Z,7.87
2018-12-22T15:22:50.735Z,7.83
2018-12-22T15:25:54.762Z,7.90
2018-12-22T15:28:58.713Z,7.87
2018-12-22T15:32:02.793Z,7.95
2018-12-22T15:35:08.852Z,7.96
2018-12-22T15:38:12.969Z,8.15
2018-12-22T15:41:16.938Z,8.15
2018-12-22T15:44:21.002Z,8.25
2018-12-22T15:47:24.941Z,8.28
2018-12-22T15:50:37.524Z,8.32
2018-12-22T15:53:41.472Z,8.27
2018-12-22T15:56:45.550Z,8.08
2018-12-22T15:59:49.504Z,7.94
2018-12-22T16:02:53.641Z,7.83
2018-12-22T16:05:57.679Z,7.67
2018-12-22T16:09:01.808Z,7.49
2018-12-22T16:12:05.749Z,7.35
2018-12-22T16:15:14.141Z,7.18
2018-12-22T16:18:18.104Z,6.97
2018-12-22T16:21:22.160Z,6.42
2018-12-22T16:24:26.122Z,5.90
2018-12-22T16:27:30.194Z,5.61
2018-12-22T16:30:42.089Z,5.46
2018-12-22T16:33:46.315Z,5.32
2018-12-22T16:36:50.329Z,5.23
2018-12-22T16:39:54.447Z,5.17
2018-12-22T16:42:58.468Z,5.10
2018-12-22T16:46:02.677Z,5.05
2018-12-22T16:49:06.624Z,5.00
2018-12-22T16:52:10.696Z,4.93
2018-12-22T16:55:16.552Z,4.86
2018-12-22T16:58:25.776Z,4.80
2018-12-22T17:01:35.613Z,4.76
2018-12-22T17:04:39.650Z,4.69
2018-12-22T17:07:43.700Z,4.64
2018-12-22T17:10:48.901Z,4.61
2018-12-22T17:13:52.840Z,4.62
2018-12-22T17:16:56.937Z,4.63
2018-12-22T17:20:00.873Z,4.65
2018-12-22T17:23:26.564Z,4.66
2018-12-22T17:26:32.223Z,4.69
2018-12-22T17:29:36.333Z,4.70
2018-12-22T17:32:40.293Z,4.70
2018-12-22T17:35:44.380Z,4.70
2018-12-22T17:38:48.320Z,4.70
2018-12-22T17:41:52.432Z,4.69
2018-12-22T17:44:57.088Z,4.67
2018-12-22T17:48:01.133Z,4.65
2018-12-22T17:51:05.085Z,4.64
2018-12-22T17:54:09.161Z,4.62
2018-12-22T17:57:13.112Z,4.60
2018-12-22T18:00:17.281Z,4.58
2018-12-22T18:03:27.437Z,4.57
2018-12-22T18:06:29.453Z,4.55
2018-12-22T18:09:33.391Z,4.54
2018-12-22T18:12:37.408Z,4.53
2018-12-22T18:15:41.371Z,4.51
2018-12-22T18:18:45.465Z,4.50
2018-12-22T18:21:49.413Z,4.46
2018-12-22T18:24:53.498Z,4.40
2018-12-22T18:27:57.437Z,4.25
2018-12-22T18:31:01.449Z,4.15
2018-12-22T18:34:05.393Z,4.02
2018-12-22T18:37:09.441Z,3.96
2018-12-22T18:40:20.176Z,3.86
2018-12-22T18:43:24.235Z,3.81
2018-12-22T18:46:28.168Z,3.76
2018-12-22T18:49:32.357Z,3.75
2018-12-22T18:52:36.296Z,3.71
2018-12-22T18:55:40.386Z,3.68
2018-12-22T18:58:44.337Z,3.65
2018-12-22T19:01:48.413Z,3.63
2018-12-22T19:04:52.347Z,3.62
2018-12-22T19:07:56.537Z,3.60
2018-12-22T19:11:00.545Z,3.56
2018-12-22T19:14:04.565Z,3.53
2018-12-22T19:17:08.500Z,3.52
2018-12-22T19:20:17.942Z,3.51
2018-12-22T19:23:21.964Z,3.48
2018-12-22T19:26:26.149Z,3.47
2018-12-22T19:29:30.081Z,3.47
2018-12-22T19:32:34.176Z,3.46
2018-12-22T19:35:38.113Z,3.45
2018-12-22T19:38:42.204Z,3.41
2018-12-22T19:41:47.427Z,3.38
2018-12-22T19:44:51.444Z,3.35
2018-12-22T19:47:55.373Z,3.33
2018-12-22T19:50:59.485Z,3.33
2018-12-22T19:54:03.418Z,3.30
2018-12-22T19:57:07.517Z,3.30
2018-12-22T20:00:11.477Z,3.30
2018-12-22T20:03:15.515Z,3.28
2018-12-22T20:06:19.470Z,3.28
2018-12-22T20:09:23.564Z,3.27
2018-12-22T20:12:27.496Z,3.27
2018-12-22T20:15:31.536Z,3.27
2018-12-22T20:18:35.472Z,3.25
2018-12-22T20:21:39.517Z,3.24
2018-12-22T20:24:43.461Z,3.25
2018-12-22T20:27:47.471Z,3.23
2018-12-22T20:30:51.431Z,3.21
2018-12-22T20:33:55.470Z,3.19
2018-12-22T20:36:59.416Z,3.18
2018-12-22T20:40:04.006Z,3.16
2018-12-22T20:43:07.947Z,3.16
2018-12-22T20:46:12.229Z,3.16
2018-12-22T20:49:16.264Z,3.17
2018-12-22T20:52:20.468Z,3.17
2018-12-22T20:55:24.416Z,3.18
2018-12-22T20:58:28.500Z,3.18
2018-12-22T21:01:32.445Z,3.20
2018-12-22T21:04:36.516Z,3.19
2018-12-22T21:07:40.457Z,3.20
2018-12-22T21:10:45.352Z,3.20
2018-12-22T21:13:49.292Z,3.18
2018-12-22T21:16:53.397Z,3.20
2018-12-22T21:19:57.333Z,3.21
2018-12-22T21:23:01.435Z,3.21
2018-12-22T21:26:05.374Z,3.21
2018-12-22T21:29:09.465Z,3.23
2018-12-22T21:32:13.432Z,3.22
2018-12-22T21:35:17.579Z,3.22
2018-12-22T21:38:22.113Z,3.19
2018-12-22T21:41:26.233Z,3.19
2018-12-22T21:44:29.925Z,3.16
2018-12-22T21:47:34.054Z,3.14
2018-12-22T21:50:38.004Z,3.15
2018-12-22T21:53:42.069Z,3.11
2018-12-22T21:56:46.020Z,3.12
2018-12-22T21:59:50.099Z,3.10
2018-12-22T22:02:54.052Z,3.09
2018-12-22T22:05:58.132Z,3.10
2018-12-22T22:09:02.080Z,3.09
2018-12-22T22:12:06.268Z,3.09
2018-12-22T22:15:10.209Z,3.08
2018-12-22T22:18:14.241Z,3.07
2018-12-22T22:21:18.212Z,3.06
2018-12-22T22:24:22.308Z,3.05
2018-12-22T22:27:26.261Z,3.05
2018-12-22T22:30:30.384Z,3.03
2018-12-22T22:33:34.321Z,3.05
2018-12-22T22:36:38.467Z,3.06
2018-12-22T22:39:42.408Z,3.05
2018-12-22T22:42:46.500Z,3.06
2018-12-22T22:45:50.441Z,3.05
2018-12-22T22:48:54.452Z,3.04
2018-12-22T22:51:58.408Z,3.02
2018-12-22T22:55:02.425Z,3.02
2018-12-22T22:58:06.373Z,3.00
2018-12-22T23:01:10.572Z,3.01
2018-12-22T23:04:14.520Z,3.01
2018-12-22T23:07:18.605Z,3.01
2018-12-22T23:10:22.565Z,2.99
2018-12-22T23:13:26.583Z,2.99
2018-12-22T23:16:30.517Z,2.98
2018-12-22T23:19:35.121Z,2.99
2018-12-22T23:22:39.197Z,3.00
2018-12-22T23:25:43.292Z,3.00
2018-12-22T23:28:47.245Z,3.00
2018-12-22T23:31:51.328Z,2.99
2018-12-22T23:35:02.788Z,2.98
2018-12-22T23:38:01.503Z,2.99
2018-12-22T23:41:05.441Z,2.99
2018-12-22T23:44:09.525Z,3.00
2018-12-22T23:47:13.492Z,3.00
2018-12-22T23:50:17.549Z,3.00
2018-12-22T23:53:21.489Z,2.98
2018-12-22T23:56:25.577Z,2.98
2018-12-22T23:59:29.521Z,2.98
